sensor_id;sensor_type;location;lat;lon;timestamp;P1;durP1;ratioP1;P2;durP2;ratioP2
62071;SDS011;48031;48.542;13.232;2023-09-08T00:02:40;7.10;;;2.85;;
62071;SDS011;48031;48.542;13.232;2023-09-08T00:06:43;3.15;;;2.28;;
62071;SDS011;48031;48.542;13.232;2023-09-08T00:10:46;3.63;;;2.10;;
62071;SDS011;48031;48.542;13.232;2023-09-08T00:14:48;2.70;;;2.30;;
62071;SDS011;48031;48.542;13.232;2023-09-08T00:18:51;4.70;;;2.65;;
62071;SDS011;48031;48.542;13.232;2023-09-08T00:22:53;2.83;;;2.47;;
62071;SDS011;48031;48.542;13.232;2023-09-08T00:26:56;2.40;;;2.20;;
62071;SDS011;48031;48.542;13.232;2023-09-08T00:30:59;3.72;;;2.65;;
62071;SDS011;48031;48.542;13.232;2023-09-08T00:35:10;5.07;;;2.67;;
62071;SDS011;48031;48.542;13.232;2023-09-08T00:39:13;2.28;;;2.08;;
62071;SDS011;48031;48.542;13.232;2023-09-08T00:43:16;3.40;;;2.17;;
62071;SDS011;48031;48.542;13.232;2023-09-08T00:47:18;2.90;;;2.10;;
62071;SDS011;48031;48.542;13.232;2023-09-08T00:51:20;3.78;;;2.75;;
62071;SDS011;48031;48.542;13.232;2023-09-08T00:55:23;3.00;;;2.60;;
62071;SDS011;48031;48.542;13.232;2023-09-08T00:59:25;2.85;;;2.45;;
62071;SDS011;48031;48.542;13.232;2023-09-08T01:03:27;5.05;;;2.30;;
62071;SDS011;48031;48.542;13.232;2023-09-08T01:07:29;4.70;;;3.00;;
62071;SDS011;48031;48.542;13.232;2023-09-08T01:11:33;2.58;;;2.35;;
62071;SDS011;48031;48.542;13.232;2023-09-08T01:15:35;4.40;;;2.85;;
62071;SDS011;48031;48.542;13.232;2023-09-08T01:19:37;3.67;;;2.70;;
62071;SDS011;48031;48.542;13.232;2023-09-08T01:28:20;3.53;;;2.55;;
62071;SDS011;48031;48.542;13.232;2023-09-08T01:32:25;6.38;;;2.65;;
62071;SDS011;48031;48.542;13.232;2023-09-08T01:36:27;4.78;;;2.90;;
62071;SDS011;48031;48.542;13.232;2023-09-08T01:40:30;3.38;;;2.58;;
62071;SDS011;48031;48.542;13.232;2023-09-08T01:44:32;3.10;;;2.70;;
62071;SDS011;48031;48.542;13.232;2023-09-08T01:48:34;2.78;;;2.58;;
62071;SDS011;48031;48.542;13.232;2023-09-08T01:52:37;3.10;;;2.80;;
62071;SDS011;48031;48.542;13.232;2023-09-08T01:56:39;3.10;;;2.45;;
62071;SDS011;48031;48.542;13.232;2023-09-08T02:00:41;3.65;;;3.08;;
62071;SDS011;48031;48.542;13.232;2023-09-08T02:04:44;4.50;;;3.00;;
62071;SDS011;48031;48.542;13.232;2023-09-08T02:08:47;3.45;;;2.47;;
62071;SDS011;48031;48.542;13.232;2023-09-08T02:12:48;3.80;;;3.05;;
62071;SDS011;48031;48.542;13.232;2023-09-08T02:16:51;3.00;;;2.58;;
62071;SDS011;48031;48.542;13.232;2023-09-08T02:20:53;2.70;;;2.35;;
62071;SDS011;48031;48.542;13.232;2023-09-08T02:24:55;3.35;;;2.55;;
62071;SDS011;48031;48.542;13.232;2023-09-08T02:29:00;4.60;;;3.08;;
62071;SDS011;48031;48.542;13.232;2023-09-08T02:33:02;3.70;;;2.72;;
62071;SDS011;48031;48.542;13.232;2023-09-08T02:37:05;4.60;;;2.85;;
62071;SDS011;48031;48.542;13.232;2023-09-08T02:41:08;3.55;;;2.83;;
62071;SDS011;48031;48.542;13.232;2023-09-08T02:45:10;4.22;;;3.10;;
62071;SDS011;48031;48.542;13.232;2023-09-08T02:49:13;3.25;;;2.70;;
62071;SDS011;48031;48.542;13.232;2023-09-08T02:53:15;2.97;;;2.58;;
62071;SDS011;48031;48.542;13.232;2023-09-08T02:57:17;6.82;;;2.88;;
62071;SDS011;48031;48.542;13.232;2023-09-08T03:01:19;3.03;;;2.47;;
62071;SDS011;48031;48.542;13.232;2023-09-08T03:05:22;3.90;;;2.75;;
62071;SDS011;48031;48.542;13.232;2023-09-08T03:09:25;2.88;;;2.50;;
62071;SDS011;48031;48.542;13.232;2023-09-08T03:13:27;5.07;;;2.80;;
62071;SDS011;48031;48.542;13.232;2023-09-08T03:17:30;3.78;;;2.75;;
62071;SDS011;48031;48.542;13.232;2023-09-08T03:21:33;4.05;;;2.97;;
62071;SDS011;48031;48.542;13.232;2023-09-08T03:25:35;4.35;;;2.97;;
62071;SDS011;48031;48.542;13.232;2023-09-08T03:29:37;2.88;;;2.58;;
62071;SDS011;48031;48.542;13.232;2023-09-08T03:33:40;3.20;;;2.53;;
62071;SDS011;48031;48.542;13.232;2023-09-08T03:37:44;2.92;;;2.53;;
62071;SDS011;48031;48.542;13.232;2023-09-08T03:41:47;3.75;;;2.70;;
62071;SDS011;48031;48.542;13.232;2023-09-08T03:45:49;2.92;;;2.60;;
62071;SDS011;48031;48.542;13.232;2023-09-08T03:49:52;3.72;;;2.58;;
62071;SDS011;48031;48.542;13.232;2023-09-08T03:53:54;6.50;;;2.80;;
62071;SDS011;48031;48.542;13.232;2023-09-08T03:57:56;3.03;;;2.50;;
62071;SDS011;48031;48.542;13.232;2023-09-08T04:01:59;1.70;;;1.58;;
62071;SDS011;48031;48.542;13.232;2023-09-08T04:06:04;4.07;;;3.08;;
62071;SDS011;48031;48.542;13.232;2023-09-08T04:10:08;7.95;;;3.00;;
62071;SDS011;48031;48.542;13.232;2023-09-08T04:14:11;4.07;;;2.58;;
62071;SDS011;48031;48.542;13.232;2023-09-08T04:18:13;3.15;;;2.50;;
62071;SDS011;48031;48.542;13.232;2023-09-08T04:22:16;4.15;;;2.60;;
62071;SDS011;48031;48.542;13.232;2023-09-08T04:26:18;4.47;;;2.85;;
62071;SDS011;48031;48.542;13.232;2023-09-08T04:30:21;6.07;;;2.97;;
62071;SDS011;48031;48.542;13.232;2023-09-08T04:34:24;2.92;;;2.47;;
62071;SDS011;48031;48.542;13.232;2023-09-08T04:38:27;4.00;;;3.05;;
62071;SDS011;48031;48.542;13.232;2023-09-08T04:42:29;3.65;;;2.60;;
62071;SDS011;48031;48.542;13.232;2023-09-08T04:46:32;5.40;;;3.30;;
62071;SDS011;48031;48.542;13.232;2023-09-08T04:50:35;4.50;;;2.95;;
62071;SDS011;48031;48.542;13.232;2023-09-08T04:54:38;3.65;;;2.83;;
62071;SDS011;48031;48.542;13.232;2023-09-08T04:58:41;4.15;;;3.15;;
62071;SDS011;48031;48.542;13.232;2023-09-08T05:02:46;4.18;;;3.22;;
62071;SDS011;48031;48.542;13.232;2023-09-08T05:06:49;3.63;;;2.85;;
62071;SDS011;48031;48.542;13.232;2023-09-08T05:10:53;6.80;;;3.38;;
62071;SDS011;48031;48.542;13.232;2023-09-08T05:14:55;3.67;;;2.65;;
62071;SDS011;48031;48.542;13.232;2023-09-08T05:18:58;4.38;;;3.08;;
62071;SDS011;48031;48.542;13.232;2023-09-08T05:23:01;3.35;;;2.80;;
62071;SDS011;48031;48.542;13.232;2023-09-08T05:27:04;4.82;;;2.90;;
62071;SDS011;48031;48.542;13.232;2023-09-08T05:31:07;3.58;;;3.03;;
62071;SDS011;48031;48.542;13.232;2023-09-08T05:35:10;3.85;;;2.83;;
62071;SDS011;48031;48.542;13.232;2023-09-08T05:39:15;3.33;;;2.83;;
62071;SDS011;48031;48.542;13.232;2023-09-08T05:43:17;3.78;;;3.03;;
62071;SDS011;48031;48.542;13.232;2023-09-08T05:47:20;5.70;;;3.65;;
62071;SDS011;48031;48.542;13.232;2023-09-08T05:51:23;4.00;;;3.10;;
62071;SDS011;48031;48.542;13.232;2023-09-08T05:55:27;3.60;;;2.95;;
62071;SDS011;48031;48.542;13.232;2023-09-08T05:59:30;4.18;;;2.83;;
62071;SDS011;48031;48.542;13.232;2023-09-08T06:03:32;4.55;;;3.25;;
62071;SDS011;48031;48.542;13.232;2023-09-08T06:07:35;4.57;;;3.55;;
62071;SDS011;48031;48.542;13.232;2023-09-08T06:11:41;5.65;;;3.50;;
62071;SDS011;48031;48.542;13.232;2023-09-08T06:15:45;3.83;;;3.03;;
62071;SDS011;48031;48.542;13.232;2023-09-08T06:19:49;5.10;;;3.08;;
62071;SDS011;48031;48.542;13.232;2023-09-08T06:23:51;5.30;;;3.42;;
62071;SDS011;48031;48.542;13.232;2023-09-08T06:27:54;4.53;;;3.17;;
62071;SDS011;48031;48.542;13.232;2023-09-08T06:31:56;3.15;;;2.83;;
62071;SDS011;48031;48.542;13.232;2023-09-08T06:35:59;3.75;;;3.20;;
62071;SDS011;48031;48.542;13.232;2023-09-08T06:40:01;5.32;;;3.38;;
62071;SDS011;48031;48.542;13.232;2023-09-08T06:44:03;8.23;;;3.58;;
62071;SDS011;48031;48.542;13.232;2023-09-08T06:48:08;5.03;;;2.88;;
62071;SDS011;48031;48.542;13.232;2023-09-08T06:52:11;6.07;;;3.45;;
62071;SDS011;48031;48.542;13.232;2023-09-08T06:56:13;5.65;;;3.92;;
62071;SDS011;48031;48.542;13.232;2023-09-08T07:00:15;4.45;;;2.97;;
62071;SDS011;48031;48.542;13.232;2023-09-08T07:04:19;4.53;;;3.25;;
62071;SDS011;48031;48.542;13.232;2023-09-08T07:08:21;8.25;;;4.22;;
62071;SDS011;48031;48.542;13.232;2023-09-08T07:12:24;6.30;;;4.30;;
62071;SDS011;48031;48.542;13.232;2023-09-08T07:16:40;6.32;;;3.88;;
62071;SDS011;48031;48.542;13.232;2023-09-08T07:20:45;4.72;;;3.53;;
62071;SDS011;48031;48.542;13.232;2023-09-08T07:24:50;4.80;;;3.63;;
62071;SDS011;48031;48.542;13.232;2023-09-08T07:28:52;4.85;;;3.75;;
62071;SDS011;48031;48.542;13.232;2023-09-08T07:32:54;5.53;;;4.03;;
62071;SDS011;48031;48.542;13.232;2023-09-08T07:36:57;5.45;;;4.03;;
62071;SDS011;48031;48.542;13.232;2023-09-08T07:40:59;4.68;;;3.47;;
62071;SDS011;48031;48.542;13.232;2023-09-08T07:45:03;5.38;;;4.03;;
62071;SDS011;48031;48.542;13.232;2023-09-08T07:49:06;4.72;;;3.95;;
62071;SDS011;48031;48.542;13.232;2023-09-08T07:53:08;5.55;;;3.78;;
62071;SDS011;48031;48.542;13.232;2023-09-08T07:57:10;5.70;;;4.13;;
62071;SDS011;48031;48.542;13.232;2023-09-08T08:01:12;6.93;;;4.63;;
62071;SDS011;48031;48.542;13.232;2023-09-08T08:05:15;6.22;;;4.28;;
62071;SDS011;48031;48.542;13.232;2023-09-08T08:09:18;6.82;;;5.30;;
62071;SDS011;48031;48.542;13.232;2023-09-08T08:13:20;9.98;;;6.45;;
62071;SDS011;48031;48.542;13.232;2023-09-08T08:17:21;12.23;;;7.65;;
62071;SDS011;48031;48.542;13.232;2023-09-08T08:21:23;19.25;;;10.38;;
62071;SDS011;48031;48.542;13.232;2023-09-08T08:25:25;11.98;;;7.00;;
62071;SDS011;48031;48.542;13.232;2023-09-08T08:29:28;11.68;;;6.93;;
62071;SDS011;48031;48.542;13.232;2023-09-08T08:33:32;11.68;;;6.78;;
62071;SDS011;48031;48.542;13.232;2023-09-08T08:37:35;10.55;;;6.03;;
62071;SDS011;48031;48.542;13.232;2023-09-08T08:41:37;7.60;;;5.28;;
62071;SDS011;48031;48.542;13.232;2023-09-08T08:45:41;9.80;;;4.88;;
62071;SDS011;48031;48.542;13.232;2023-09-08T08:49:45;5.10;;;3.50;;
62071;SDS011;48031;48.542;13.232;2023-09-08T08:53:50;5.43;;;3.60;;
62071;SDS011;48031;48.542;13.232;2023-09-08T08:57:52;4.40;;;3.42;;
62071;SDS011;48031;48.542;13.232;2023-09-08T09:01:54;4.97;;;3.22;;
62071;SDS011;48031;48.542;13.232;2023-09-08T09:05:57;4.53;;;3.60;;
62071;SDS011;48031;48.542;13.232;2023-09-08T09:10:01;5.00;;;3.78;;
62071;SDS011;48031;48.542;13.232;2023-09-08T09:14:04;5.22;;;3.42;;
62071;SDS011;48031;48.542;13.232;2023-09-08T09:18:06;4.20;;;3.53;;
62071;SDS011;48031;48.542;13.232;2023-09-08T09:22:09;4.15;;;2.92;;
62071;SDS011;48031;48.542;13.232;2023-09-08T09:26:22;3.55;;;3.03;;
62071;SDS011;48031;48.542;13.232;2023-09-08T09:30:28;3.70;;;2.88;;
62071;SDS011;48031;48.542;13.232;2023-09-08T09:34:49;3.47;;;2.33;;
62071;SDS011;48031;48.542;13.232;2023-09-08T09:38:59;3.65;;;3.08;;
62071;SDS011;48031;48.542;13.232;2023-09-08T09:43:02;3.63;;;3.00;;
62071;SDS011;48031;48.542;13.232;2023-09-08T09:47:06;3.97;;;2.58;;
62071;SDS011;48031;48.542;13.232;2023-09-08T09:51:17;3.17;;;2.72;;
62071;SDS011;48031;48.542;13.232;2023-09-08T09:55:21;3.13;;;2.70;;
62071;SDS011;48031;48.542;13.232;2023-09-08T09:59:23;2.70;;;2.50;;
62071;SDS011;48031;48.542;13.232;2023-09-08T10:03:25;3.22;;;2.75;;
62071;SDS011;48031;48.542;13.232;2023-09-08T10:07:29;2.90;;;2.58;;
62071;SDS011;48031;48.542;13.232;2023-09-08T10:11:35;2.72;;;2.50;;
62071;SDS011;48031;48.542;13.232;2023-09-08T10:15:43;3.15;;;2.50;;
62071;SDS011;48031;48.542;13.232;2023-09-08T10:19:46;2.30;;;2.10;;
62071;SDS011;48031;48.542;13.232;2023-09-08T10:23:54;2.83;;;2.47;;
62071;SDS011;48031;48.542;13.232;2023-09-08T10:28:03;2.90;;;2.70;;
62071;SDS011;48031;48.542;13.232;2023-09-08T10:32:09;3.58;;;3.28;;
62071;SDS011;48031;48.542;13.232;2023-09-08T10:40:24;2.58;;;2.38;;
62071;SDS011;48031;48.542;13.232;2023-09-08T10:44:35;2.58;;;2.38;;
62071;SDS011;48031;48.542;13.232;2023-09-08T10:48:41;3.90;;;2.35;;
62071;SDS011;48031;48.542;13.232;2023-09-08T10:52:45;3.55;;;2.90;;
62071;SDS011;48031;48.542;13.232;2023-09-08T10:57:06;3.65;;;2.40;;
62071;SDS011;48031;48.542;13.232;2023-09-08T11:01:17;2.50;;;2.30;;
62071;SDS011;48031;48.542;13.232;2023-09-08T11:05:22;3.63;;;2.50;;
62071;SDS011;48031;48.542;13.232;2023-09-08T11:09:25;2.40;;;2.20;;
62071;SDS011;48031;48.542;13.232;2023-09-08T11:13:27;2.42;;;2.22;;
62071;SDS011;48031;48.542;13.232;2023-09-08T11:17:32;2.60;;;2.40;;
62071;SDS011;48031;48.542;13.232;2023-09-08T11:21:35;2.20;;;2.00;;
62071;SDS011;48031;48.542;13.232;2023-09-08T11:25:40;2.40;;;2.20;;
62071;SDS011;48031;48.542;13.232;2023-09-08T11:29:43;2.60;;;2.40;;
62071;SDS011;48031;48.542;13.232;2023-09-08T11:33:48;2.42;;;2.22;;
62071;SDS011;48031;48.542;13.232;2023-09-08T11:37:50;3.55;;;2.20;;
62071;SDS011;48031;48.542;13.232;2023-09-08T11:41:54;2.53;;;2.33;;
62071;SDS011;48031;48.542;13.232;2023-09-08T11:45:56;3.08;;;2.40;;
62071;SDS011;48031;48.542;13.232;2023-09-08T11:49:58;2.50;;;2.20;;
62071;SDS011;48031;48.542;13.232;2023-09-08T11:54:00;2.22;;;2.10;;
62071;SDS011;48031;48.542;13.232;2023-09-08T11:58:03;2.97;;;2.17;;
62071;SDS011;48031;48.542;13.232;2023-09-08T12:02:06;2.13;;;2.00;;
62071;SDS011;48031;48.542;13.232;2023-09-08T12:06:08;2.10;;;2.00;;
62071;SDS011;48031;48.542;13.232;2023-09-08T12:10:11;2.95;;;2.53;;
62071;SDS011;48031;48.542;13.232;2023-09-08T12:14:15;2.80;;;2.30;;
62071;SDS011;48031;48.542;13.232;2023-09-08T12:18:17;2.30;;;2.20;;
62071;SDS011;48031;48.542;13.232;2023-09-08T12:22:20;2.75;;;2.50;;
62071;SDS011;48031;48.542;13.232;2023-09-08T12:26:24;2.33;;;2.13;;
62071;SDS011;48031;48.542;13.232;2023-09-08T12:30:27;2.50;;;2.30;;
62071;SDS011;48031;48.542;13.232;2023-09-08T12:34:34;2.47;;;1.92;;
62071;SDS011;48031;48.542;13.232;2023-09-08T12:38:37;2.50;;;2.30;;
62071;SDS011;48031;48.542;13.232;2023-09-08T12:42:39;2.50;;;2.30;;
62071;SDS011;48031;48.542;13.232;2023-09-08T12:46:51;2.70;;;2.50;;
62071;SDS011;48031;48.542;13.232;2023-09-08T12:50:53;2.50;;;2.30;;
62071;SDS011;48031;48.542;13.232;2023-09-08T12:54:55;2.60;;;2.40;;
62071;SDS011;48031;48.542;13.232;2023-09-08T12:58:57;2.80;;;2.60;;
62071;SDS011;48031;48.542;13.232;2023-09-08T13:02:59;2.22;;;2.05;;
62071;SDS011;48031;48.542;13.232;2023-09-08T13:07:03;2.45;;;2.25;;
62071;SDS011;48031;48.542;13.232;2023-09-08T13:11:06;2.88;;;2.30;;
62071;SDS011;48031;48.542;13.232;2023-09-08T13:15:08;2.70;;;2.00;;
62071;SDS011;48031;48.542;13.232;2023-09-08T13:19:11;2.42;;;2.22;;
62071;SDS011;48031;48.542;13.232;2023-09-08T13:23:13;2.42;;;2.22;;
62071;SDS011;48031;48.542;13.232;2023-09-08T13:27:15;2.70;;;2.50;;
62071;SDS011;48031;48.542;13.232;2023-09-08T13:31:19;3.88;;;2.70;;
62071;SDS011;48031;48.542;13.232;2023-09-08T13:35:21;2.35;;;2.20;;
62071;SDS011;48031;48.542;13.232;2023-09-08T13:39:24;2.60;;;2.40;;
62071;SDS011;48031;48.542;13.232;2023-09-08T13:43:26;2.70;;;2.50;;
62071;SDS011;48031;48.542;13.232;2023-09-08T13:47:29;2.65;;;2.45;;
62071;SDS011;48031;48.542;13.232;2023-09-08T13:51:31;2.80;;;2.60;;
62071;SDS011;48031;48.542;13.232;2023-09-08T13:55:35;3.15;;;2.25;;
62071;SDS011;48031;48.542;13.232;2023-09-08T13:59:39;2.72;;;2.53;;
62071;SDS011;48031;48.542;13.232;2023-09-08T14:08:04;2.80;;;2.60;;
62071;SDS011;48031;48.542;13.232;2023-09-08T14:12:19;3.00;;;2.80;;
62071;SDS011;48031;48.542;13.232;2023-09-08T14:16:26;3.00;;;2.80;;
62071;SDS011;48031;48.542;13.232;2023-09-08T14:20:28;2.97;;;2.78;;
62071;SDS011;48031;48.542;13.232;2023-09-08T14:24:30;2.90;;;2.70;;
62071;SDS011;48031;48.542;13.232;2023-09-08T14:28:32;3.03;;;2.83;;
62071;SDS011;48031;48.542;13.232;2023-09-08T14:32:34;3.65;;;3.35;;
62071;SDS011;48031;48.542;13.232;2023-09-08T14:36:39;3.85;;;3.55;;
62071;SDS011;48031;48.542;13.232;2023-09-08T14:40:42;3.65;;;3.35;;
62071;SDS011;48031;48.542;13.232;2023-09-08T14:44:44;4.30;;;4.00;;
62071;SDS011;48031;48.542;13.232;2023-09-08T14:48:45;4.45;;;4.05;;
62071;SDS011;48031;48.542;13.232;2023-09-08T14:52:48;4.28;;;3.97;;
62071;SDS011;48031;48.542;13.232;2023-09-08T14:56:49;4.30;;;3.92;;
62071;SDS011;48031;48.542;13.232;2023-09-08T15:00:52;5.85;;;5.45;;
62071;SDS011;48031;48.542;13.232;2023-09-08T15:04:55;3.20;;;3.00;;
62071;SDS011;48031;48.542;13.232;2023-09-08T15:08:58;3.28;;;3.05;;
62071;SDS011;48031;48.542;13.232;2023-09-08T15:13:00;8.30;;;7.78;;
62071;SDS011;48031;48.542;13.232;2023-09-08T15:17:02;6.20;;;5.80;;
62071;SDS011;48031;48.542;13.232;2023-09-08T15:21:04;6.85;;;6.30;;
62071;SDS011;48031;48.542;13.232;2023-09-08T15:25:06;6.80;;;6.40;;
62071;SDS011;48031;48.542;13.232;2023-09-08T15:29:09;7.60;;;7.20;;
62071;SDS011;48031;48.542;13.232;2023-09-08T15:33:14;6.45;;;6.05;;
62071;SDS011;48031;48.542;13.232;2023-09-08T15:37:17;6.70;;;6.30;;
62071;SDS011;48031;48.542;13.232;2023-09-08T15:41:19;6.88;;;6.45;;
62071;SDS011;48031;48.542;13.232;2023-09-08T15:45:22;6.53;;;6.13;;
62071;SDS011;48031;48.542;13.232;2023-09-08T15:49:24;6.30;;;5.85;;
62071;SDS011;48031;48.542;13.232;2023-09-08T15:53:26;6.18;;;5.78;;
62071;SDS011;48031;48.542;13.232;2023-09-08T15:57:28;5.95;;;5.55;;
62071;SDS011;48031;48.542;13.232;2023-09-08T16:01:30;5.57;;;5.20;;
62071;SDS011;48031;48.542;13.232;2023-09-08T16:05:32;5.47;;;5.07;;
62071;SDS011;48031;48.542;13.232;2023-09-08T16:09:35;5.60;;;5.30;;
62071;SDS011;48031;48.542;13.232;2023-09-08T16:13:47;5.03;;;4.72;;
62071;SDS011;48031;48.542;13.232;2023-09-08T16:17:50;4.80;;;4.50;;
62071;SDS011;48031;48.542;13.232;2023-09-08T16:21:52;4.15;;;3.95;;
62071;SDS011;48031;48.542;13.232;2023-09-08T16:25:56;3.92;;;3.67;;
62071;SDS011;48031;48.542;13.232;2023-09-08T16:29:58;3.33;;;3.13;;
62071;SDS011;48031;48.542;13.232;2023-09-08T16:34:00;2.97;;;2.78;;
62071;SDS011;48031;48.542;13.232;2023-09-08T16:38:02;2.85;;;2.65;;
62071;SDS011;48031;48.542;13.232;2023-09-08T16:42:04;2.60;;;2.40;;
62071;SDS011;48031;48.542;13.232;2023-09-08T16:46:06;2.42;;;2.22;;
62071;SDS011;48031;48.542;13.232;2023-09-08T16:50:09;2.42;;;2.22;;
62071;SDS011;48031;48.542;13.232;2023-09-08T16:54:11;2.47;;;2.28;;
62071;SDS011;48031;48.542;13.232;2023-09-08T16:58:14;2.30;;;2.10;;
62071;SDS011;48031;48.542;13.232;2023-09-08T17:02:15;2.28;;;2.08;;
62071;SDS011;48031;48.542;13.232;2023-09-08T17:06:18;2.97;;;2.13;;
62071;SDS011;48031;48.542;13.232;2023-09-08T17:10:20;2.50;;;2.22;;
62071;SDS011;48031;48.542;13.232;2023-09-08T17:14:22;2.70;;;2.50;;
62071;SDS011;48031;48.542;13.232;2023-09-08T17:18:25;3.40;;;2.33;;
62071;SDS011;48031;48.542;13.232;2023-09-08T17:22:31;2.65;;;1.98;;
62071;SDS011;48031;48.542;13.232;2023-09-08T17:26:33;4.45;;;2.08;;
62071;SDS011;48031;48.542;13.232;2023-09-08T17:30:35;4.15;;;2.28;;
62071;SDS011;48031;48.542;13.232;2023-09-08T17:34:37;3.95;;;2.80;;
62071;SDS011;48031;48.542;13.232;2023-09-08T17:38:40;2.55;;;2.35;;
62071;SDS011;48031;48.542;13.232;2023-09-08T17:42:43;2.75;;;2.30;;
62071;SDS011;48031;48.542;13.232;2023-09-08T17:46:45;2.65;;;2.33;;
62071;SDS011;48031;48.542;13.232;2023-09-08T17:50:48;2.33;;;2.10;;
62071;SDS011;48031;48.542;13.232;2023-09-08T17:54:50;3.20;;;2.42;;
62071;SDS011;48031;48.542;13.232;2023-09-08T17:58:52;3.22;;;2.38;;
62071;SDS011;48031;48.542;13.232;2023-09-08T18:02:53;2.40;;;2.20;;
62071;SDS011;48031;48.542;13.232;2023-09-08T18:06:56;2.42;;;2.05;;
62071;SDS011;48031;48.542;13.232;2023-09-08T18:10:59;2.13;;;1.80;;
62071;SDS011;48031;48.542;13.232;2023-09-08T18:15:02;3.17;;;2.40;;
62071;SDS011;48031;48.542;13.232;2023-09-08T18:19:04;4.68;;;2.60;;
62071;SDS011;48031;48.542;13.232;2023-09-08T18:23:06;2.63;;;2.40;;
62071;SDS011;48031;48.542;13.232;2023-09-08T18:27:08;3.20;;;2.38;;
62071;SDS011;48031;48.542;13.232;2023-09-08T18:31:10;3.25;;;2.53;;
62071;SDS011;48031;48.542;13.232;2023-09-08T18:35:13;2.50;;;2.13;;
62071;SDS011;48031;48.542;13.232;2023-09-08T18:39:18;4.90;;;2.75;;
62071;SDS011;48031;48.542;13.232;2023-09-08T18:43:21;4.35;;;2.60;;
62071;SDS011;48031;48.542;13.232;2023-09-08T18:47:23;3.33;;;2.30;;
62071;SDS011;48031;48.542;13.232;2023-09-08T18:51:25;4.50;;;2.90;;
62071;SDS011;48031;48.542;13.232;2023-09-08T18:55:27;2.83;;;2.40;;
62071;SDS011;48031;48.542;13.232;2023-09-08T18:59:29;3.15;;;2.47;;
62071;SDS011;48031;48.542;13.232;2023-09-08T19:03:32;3.17;;;2.45;;
62071;SDS011;48031;48.542;13.232;2023-09-08T19:07:35;2.80;;;2.47;;
62071;SDS011;48031;48.542;13.232;2023-09-08T19:11:37;3.45;;;2.95;;
62071;SDS011;48031;48.542;13.232;2023-09-08T19:15:39;3.65;;;2.75;;
62071;SDS011;48031;48.542;13.232;2023-09-08T19:19:41;3.45;;;2.88;;
62071;SDS011;48031;48.542;13.232;2023-09-08T19:23:43;3.88;;;3.03;;
62071;SDS011;48031;48.542;13.232;2023-09-08T19:27:46;8.35;;;6.18;;
62071;SDS011;48031;48.542;13.232;2023-09-08T19:31:49;9.40;;;5.93;;
62071;SDS011;48031;48.542;13.232;2023-09-08T19:35:51;7.03;;;4.43;;
62071;SDS011;48031;48.542;13.232;2023-09-08T19:39:53;4.90;;;3.80;;
62071;SDS011;48031;48.542;13.232;2023-09-08T19:43:55;3.65;;;2.70;;
62071;SDS011;48031;48.542;13.232;2023-09-08T19:47:57;3.88;;;3.00;;
62071;SDS011;48031;48.542;13.232;2023-09-08T19:52:00;5.90;;;3.78;;
62071;SDS011;48031;48.542;13.232;2023-09-08T19:56:02;5.05;;;3.75;;
62071;SDS011;48031;48.542;13.232;2023-09-08T20:00:04;5.55;;;4.03;;
62071;SDS011;48031;48.542;13.232;2023-09-08T20:04:13;5.55;;;4.22;;
62071;SDS011;48031;48.542;13.232;2023-09-08T20:08:16;4.68;;;3.60;;
62071;SDS011;48031;48.542;13.232;2023-09-08T20:12:18;4.35;;;3.63;;
62071;SDS011;48031;48.542;13.232;2023-09-08T20:16:20;7.07;;;4.30;;
62071;SDS011;48031;48.542;13.232;2023-09-08T20:20:22;4.38;;;3.33;;
62071;SDS011;48031;48.542;13.232;2023-09-08T20:24:26;5.30;;;3.53;;
62071;SDS011;48031;48.542;13.232;2023-09-08T20:28:28;5.20;;;4.00;;
62071;SDS011;48031;48.542;13.232;2023-09-08T20:32:30;3.78;;;3.17;;
62071;SDS011;48031;48.542;13.232;2023-09-08T20:36:32;4.18;;;3.30;;
62071;SDS011;48031;48.542;13.232;2023-09-08T20:40:35;5.13;;;3.67;;
62071;SDS011;48031;48.542;13.232;2023-09-08T20:44:37;5.18;;;3.63;;
62071;SDS011;48031;48.542;13.232;2023-09-08T20:48:39;4.82;;;3.40;;
62071;SDS011;48031;48.542;13.232;2023-09-08T20:52:42;4.03;;;3.22;;
62071;SDS011;48031;48.542;13.232;2023-09-08T20:56:44;5.90;;;3.30;;
62071;SDS011;48031;48.542;13.232;2023-09-08T21:00:46;4.72;;;3.50;;
62071;SDS011;48031;48.542;13.232;2023-09-08T21:04:48;3.42;;;2.92;;
62071;SDS011;48031;48.542;13.232;2023-09-08T21:08:51;5.13;;;3.47;;
62071;SDS011;48031;48.542;13.232;2023-09-08T21:12:53;4.63;;;3.65;;
62071;SDS011;48031;48.542;13.232;2023-09-08T21:16:55;3.88;;;3.28;;
62071;SDS011;48031;48.542;13.232;2023-09-08T21:20:58;4.20;;;3.20;;
62071;SDS011;48031;48.542;13.232;2023-09-08T21:25:00;5.38;;;3.97;;
62071;SDS011;48031;48.542;13.232;2023-09-08T21:29:02;5.70;;;3.60;;
62071;SDS011;48031;48.542;13.232;2023-09-08T21:33:05;5.70;;;3.58;;
62071;SDS011;48031;48.542;13.232;2023-09-08T21:37:07;4.55;;;3.28;;
62071;SDS011;48031;48.542;13.232;2023-09-08T21:41:10;3.63;;;2.72;;
62071;SDS011;48031;48.542;13.232;2023-09-08T21:45:12;4.00;;;3.03;;
62071;SDS011;48031;48.542;13.232;2023-09-08T21:49:15;4.75;;;3.50;;
62071;SDS011;48031;48.542;13.232;2023-09-08T21:53:17;8.95;;;3.83;;
62071;SDS011;48031;48.542;13.232;2023-09-08T21:57:19;4.47;;;3.28;;
62071;SDS011;48031;48.542;13.232;2023-09-08T22:01:21;4.95;;;3.78;;
62071;SDS011;48031;48.542;13.232;2023-09-08T22:05:24;4.57;;;3.90;;
62071;SDS011;48031;48.542;13.232;2023-09-08T22:09:26;5.13;;;3.85;;
62071;SDS011;48031;48.542;13.232;2023-09-08T22:13:28;6.82;;;4.00;;
62071;SDS011;48031;48.542;13.232;2023-09-08T22:17:30;3.88;;;3.33;;
62071;SDS011;48031;48.542;13.232;2023-09-08T22:21:34;5.05;;;3.10;;
62071;SDS011;48031;48.542;13.232;2023-09-08T22:25:37;3.88;;;3.03;;
62071;SDS011;48031;48.542;13.232;2023-09-08T22:29:39;4.10;;;3.05;;
62071;SDS011;48031;48.542;13.232;2023-09-08T22:33:42;4.72;;;3.55;;
62071;SDS011;48031;48.542;13.232;2023-09-08T22:37:45;5.00;;;3.60;;
62071;SDS011;48031;48.542;13.232;2023-09-08T22:41:47;4.57;;;3.60;;
62071;SDS011;48031;48.542;13.232;2023-09-08T22:45:49;4.57;;;3.47;;
62071;SDS011;48031;48.542;13.232;2023-09-08T22:49:58;4.13;;;3.33;;
62071;SDS011;48031;48.542;13.232;2023-09-08T22:54:02;5.80;;;3.65;;
62071;SDS011;48031;48.542;13.232;2023-09-08T22:58:04;3.67;;;3.30;;
62071;SDS011;48031;48.542;13.232;2023-09-08T23:02:06;5.43;;;4.10;;
62071;SDS011;48031;48.542;13.232;2023-09-08T23:06:09;6.35;;;3.65;;
62071;SDS011;48031;48.542;13.232;2023-09-08T23:10:14;6.15;;;3.75;;
62071;SDS011;48031;48.542;13.232;2023-09-08T23:14:16;3.35;;;2.95;;
62071;SDS011;48031;48.542;13.232;2023-09-08T23:18:19;4.55;;;3.63;;
62071;SDS011;48031;48.542;13.232;2023-09-08T23:22:21;4.78;;;3.85;;
62071;SDS011;48031;48.542;13.232;2023-09-08T23:26:24;4.82;;;3.95;;
62071;SDS011;48031;48.542;13.232;2023-09-08T23:30:28;3.80;;;3.33;;
62071;SDS011;48031;48.542;13.232;2023-09-08T23:34:30;5.57;;;4.40;;
62071;SDS011;48031;48.542;13.232;2023-09-08T23:38:33;4.50;;;3.47;;
62071;SDS011;48031;48.542;13.232;2023-09-08T23:42:35;6.97;;;4.15;;
62071;SDS011;48031;48.542;13.232;2023-09-08T23:46:38;5.30;;;3.75;;
62071;SDS011;48031;48.542;13.232;2023-09-08T23:50:50;4.72;;;4.00;;
62071;SDS011;48031;48.542;13.232;2023-09-08T23:54:54;4.93;;;4.00;;
62071;SDS011;48031;48.542;13.232;2023-09-08T23:58:56;7.60;;;3.75;;
